EIN990 EIDW-EICK
Flight info
| Callsign | EIN990 |
|---|---|
| Flight time | N/A |
| Altitude | 20000 |
| Route | PELIG2J PELIG DCT ABAGU DCT TISMO TISMO1G |
| Aircraft | A320/M-SDE3FGHIRWY/LB1 |
Departure
| Time | N/A |
|---|---|
| Airport | Dublin Airport (EIDW) |
Arrival
| Time | 2026-05-05 16:51 |
|---|---|
| Airport | Cork International Airport (EICK) |
| Time | Latitude | Longitude | Altitude | Speed | Heading |
|---|---|---|---|---|---|
| 2026-05-05 16:29 | 52.89256 | -7.47273 | 20067 ft | 365 kts | 198° |
| 2026-05-05 16:30 | 52.86811 | -7.48380 | 20066 ft | 365 kts | 198° |
| 2026-05-05 16:30 | 52.84357 | -7.49492 | 20070 ft | 365 kts | 198° |
| 2026-05-05 16:30 | 52.81912 | -7.50594 | 20067 ft | 365 kts | 198° |
| 2026-05-05 16:30 | 52.79461 | -7.51692 | 20067 ft | 365 kts | 198° |
| 2026-05-05 16:31 | 52.77010 | -7.52789 | 20068 ft | 365 kts | 197° |
| 2026-05-05 16:31 | 52.74562 | -7.53880 | 20066 ft | 365 kts | 197° |
| 2026-05-05 16:31 | 52.72106 | -7.54974 | 20066 ft | 365 kts | 197° |
| 2026-05-05 16:31 | 52.69653 | -7.56069 | 20067 ft | 366 kts | 197° |
| 2026-05-05 16:32 | 52.67197 | -7.57172 | 20065 ft | 366 kts | 197° |
| 2026-05-05 16:32 | 52.64738 | -7.58276 | 20063 ft | 366 kts | 197° |
| 2026-05-05 16:32 | 52.62286 | -7.59368 | 20066 ft | 366 kts | 197° |
| 2026-05-05 16:32 | 52.59825 | -7.60461 | 20063 ft | 366 kts | 197° |
| 2026-05-05 16:33 | 52.57374 | -7.61548 | 20070 ft | 366 kts | 197° |
| 2026-05-05 16:33 | 52.54914 | -7.62635 | 20070 ft | 366 kts | 197° |
| 2026-05-05 16:33 | 52.52486 | -7.63706 | 20070 ft | 366 kts | 197° |
| 2026-05-05 16:33 | 52.50067 | -7.65097 | 20066 ft | 364 kts | 207° |
| 2026-05-05 16:34 | 52.47889 | -7.67086 | 20070 ft | 363 kts | 213° |
| 2026-05-05 16:34 | 52.45736 | -7.69255 | 20068 ft | 363 kts | 213° |
| 2026-05-05 16:34 | 52.43583 | -7.71419 | 20068 ft | 363 kts | 213° |
| 2026-05-05 16:34 | 52.41430 | -7.73580 | 20068 ft | 363 kts | 213° |
| 2026-05-05 16:35 | 52.39276 | -7.75737 | 20068 ft | 363 kts | 213° |
| 2026-05-05 16:35 | 52.37136 | -7.77871 | 19947 ft | 355 kts | 213° |
| 2026-05-05 16:35 | 52.35059 | -7.79938 | 19702 ft | 344 kts | 213° |
| 2026-05-05 16:35 | 52.33045 | -7.81944 | 19456 ft | 335 kts | 213° |
| 2026-05-05 16:36 | 52.31067 | -7.83914 | 19211 ft | 331 kts | 213° |
| 2026-05-05 16:36 | 52.29101 | -7.85865 | 18966 ft | 330 kts | 213° |
| 2026-05-05 16:36 | 52.27140 | -7.87806 | 18721 ft | 329 kts | 213° |
| 2026-05-05 16:36 | 52.25188 | -7.89740 | 18469 ft | 328 kts | 213° |
| 2026-05-05 16:37 | 52.23245 | -7.91666 | 18235 ft | 326 kts | 213° |
| 2026-05-05 16:37 | 52.21308 | -7.93577 | 17962 ft | 325 kts | 213° |
| 2026-05-05 16:37 | 52.20025 | -7.94839 | 17780 ft | 324 kts | 213° |
| 2026-05-05 16:37 | 52.18096 | -7.96737 | 17511 ft | 323 kts | 213° |
| 2026-05-05 16:38 | 52.16178 | -7.98627 | 17244 ft | 322 kts | 213° |
| 2026-05-05 16:38 | 52.14253 | -8.00495 | 16968 ft | 321 kts | 210° |
| 2026-05-05 16:38 | 52.12182 | -8.01857 | 16726 ft | 322 kts | 197° |
| 2026-05-05 16:38 | 52.10015 | -8.02765 | 16457 ft | 321 kts | 196° |
| 2026-05-05 16:39 | 52.07847 | -8.03662 | 16194 ft | 320 kts | 196° |
| 2026-05-05 16:39 | 52.05706 | -8.04549 | 15866 ft | 316 kts | 196° |
| 2026-05-05 16:39 | 52.03584 | -8.05427 | 15459 ft | 315 kts | 196° |
| 2026-05-05 16:39 | 52.01461 | -8.06308 | 15050 ft | 314 kts | 196° |
| 2026-05-05 16:40 | 51.99346 | -8.07188 | 14632 ft | 314 kts | 195° |
| 2026-05-05 16:40 | 51.97232 | -8.08069 | 14220 ft | 314 kts | 196° |
| 2026-05-05 16:40 | 51.95114 | -8.08952 | 13788 ft | 313 kts | 195° |
| 2026-05-05 16:40 | 51.93004 | -8.09829 | 13336 ft | 312 kts | 195° |
| 2026-05-05 16:41 | 51.90904 | -8.10697 | 12924 ft | 310 kts | 195° |
| 2026-05-05 16:41 | 51.88847 | -8.11542 | 12499 ft | 308 kts | 195° |
| 2026-05-05 16:41 | 51.86774 | -8.12391 | 12072 ft | 306 kts | 195° |
| 2026-05-05 16:41 | 51.84712 | -8.13238 | 11638 ft | 305 kts | 195° |
| 2026-05-05 16:42 | 51.82659 | -8.14083 | 11199 ft | 304 kts | 195° |
| 2026-05-05 16:42 | 51.80619 | -8.14923 | 10767 ft | 302 kts | 195° |
| 2026-05-05 16:42 | 51.78584 | -8.15759 | 10319 ft | 301 kts | 195° |
| 2026-05-05 16:42 | 51.76556 | -8.16591 | 9858 ft | 300 kts | 195° |
| 2026-05-05 16:43 | 51.74535 | -8.17420 | 9371 ft | 298 kts | 195° |
| 2026-05-05 16:43 | 51.72535 | -8.18242 | 8905 ft | 295 kts | 195° |
| 2026-05-05 16:43 | 51.70550 | -8.19053 | 8414 ft | 293 kts | 195° |
| 2026-05-05 16:43 | 51.68579 | -8.19858 | 7943 ft | 291 kts | 195° |
| 2026-05-05 16:44 | 51.66682 | -8.20877 | 7586 ft | 283 kts | 211° |
| 2026-05-05 16:44 | 51.65219 | -8.22880 | 7287 ft | 272 kts | 227° |
| 2026-05-05 16:44 | 51.63920 | -8.25044 | 6970 ft | 265 kts | 228° |
| 2026-05-05 16:44 | 51.62666 | -8.27173 | 6658 ft | 259 kts | 229° |
| 2026-05-05 16:45 | 51.61439 | -8.29269 | 6353 ft | 254 kts | 229° |
| 2026-05-05 16:45 | 51.60463 | -8.31538 | 6046 ft | 242 kts | 256° |
| 2026-05-05 16:45 | 51.60492 | -8.34103 | 5738 ft | 228 kts | 294° |
| 2026-05-05 16:45 | 51.61507 | -8.35992 | 5167 ft | 228 kts | 335° |
| 2026-05-05 16:46 | 51.62999 | -8.36764 | 4800 ft | 224 kts | 344° |
| 2026-05-05 16:46 | 51.64472 | -8.37544 | 4465 ft | 221 kts | 341° |
| 2026-05-05 16:46 | 51.65902 | -8.38376 | 4168 ft | 217 kts | 340° |
| 2026-05-05 16:46 | 51.67295 | -8.39195 | 3876 ft | 214 kts | 340° |
| 2026-05-05 16:47 | 51.68699 | -8.40019 | 3577 ft | 211 kts | 341° |
| 2026-05-05 16:47 | 51.70053 | -8.40814 | 3297 ft | 209 kts | 340° |
| 2026-05-05 16:47 | 51.71410 | -8.41612 | 3008 ft | 207 kts | 340° |
| 2026-05-05 16:47 | 51.72756 | -8.42403 | 2729 ft | 205 kts | 340° |
| 2026-05-05 16:48 | 51.74091 | -8.43189 | 2447 ft | 202 kts | 340° |
| 2026-05-05 16:48 | 51.75361 | -8.43937 | 2181 ft | 187 kts | 340° |
| 2026-05-05 16:48 | 51.76515 | -8.44617 | 1959 ft | 166 kts | 341° |
| 2026-05-05 16:48 | 51.77535 | -8.45219 | 1730 ft | 147 kts | 341° |
| 2026-05-05 16:49 | 51.78464 | -8.45767 | 1525 ft | 140 kts | 341° |
| 2026-05-05 16:49 | 51.79375 | -8.46304 | 1341 ft | 139 kts | 340° |
| 2026-05-05 16:49 | 51.80276 | -8.46836 | 1132 ft | 137 kts | 342° |
| 2026-05-05 16:49 | 51.81173 | -8.47371 | 956 ft | 137 kts | 340° |
| 2026-05-05 16:50 | 51.82050 | -8.47912 | 780 ft | 133 kts | 342° |
| 2026-05-05 16:50 | 51.82932 | -8.48409 | 632 ft | 136 kts | 340° |
| 2026-05-05 16:50 | 51.83808 | -8.48926 | 510 ft | 125 kts | 340° |
| 2026-05-05 16:50 | 51.84449 | -8.49308 | 505 ft | 75 kts | 340° |
| 2026-05-05 16:51 | 51.84721 | -8.49460 | 505 ft | 18 kts | 355° |
| 2026-05-05 16:51 | 51.84797 | -8.49306 | 505 ft | 21 kts | 71° |
| 2026-05-05 16:51 | 51.84842 | -8.49068 | 505 ft | 18 kts | 69° |
| 2026-05-05 16:51 | 51.84845 | -8.49054 | 505 ft | 0 kts | 70° |